Time,TemperatureF,DewpointF,PressureIn,WindDirection,WindDirectionDegrees,WindSpeedMPH,WindSpeedGustMPH,Humidity,HourlyPrecipIn,Conditions,Clouds,dailyrainin,SoftwareType,DateUTC
2013-02-05 00:00:00,48.7,42.5,30.01,South,180,0.0,0.0,79,0.00,BKN,,0.00,WeatherDisplay:10.37,2013-02-05 05:00:00,
2013-02-05 00:01:00,48.7,42.5,30.01,South,180,0.0,0.0,79,0.00,BKN,,0.00,WeatherDisplay:10.37,2013-02-05 05:01:00,
2013-02-05 00:06:00,48.7,41.8,30.01,South,180,0.0,0.0,77,0.00,BKN,,0.00,WeatherDisplay:10.37,2013-02-05 05:06:00,
2013-02-05 00:11:00,48.9,42.0,30.00,South,180,0.0,0.0,77,0.00,BKN,,0.00,WeatherDisplay:10.37,2013-02-05 05:11:00,
2013-02-05 00:16:00,49.1,42.5,30.00,South,180,0.0,0.0,78,0.00,BKN,,0.00,WeatherDisplay:10.37,2013-02-05 05:16:00,
2013-02-05 00:21:00,49.1,42.9,30.01,South,180,0.0,0.0,79,0.00,BKN,,0.00,WeatherDisplay:10.37,2013-02-05 05:21:00,
2013-02-05 00:26:00,49.3,43.7,30.02,South,180,0.0,0.0,81,0.00,BKN,,0.00,WeatherDisplay:10.37,2013-02-05 05:26:00,
2013-02-05 00:31:00,49.3,43.7,30.02,South,180,0.0,0.0,81,0.00,BKN,,0.00,WeatherDisplay:10.37,2013-02-05 05:31:00,
2013-02-05 00:35:00,49.3,42.7,30.02,South,180,0.0,0.0,78,0.00,BKN,,0.00,WeatherDisplay:10.37,2013-02-05 05:35:00,
2013-02-05 00:40:00,49.3,43.0,30.02,South,180,0.0,0.0,79,0.00,BKN,,0.00,WeatherDisplay:10.37,2013-02-05 05:40:00,
2013-02-05 00:45:00,49.3,43.4,30.02,South,180,0.0,0.0,80,0.00,BKN,,0.00,WeatherDisplay:10.37,2013-02-05 05:45:00,
2013-02-05 00:50:00,48.9,42.7,30.02,South,180,0.0,0.0,79,0.00,BKN,,0.00,WeatherDisplay:10.37,2013-02-05 05:50:00,
2013-02-05 00:55:00,48.9,42.7,30.01,South,180,0.0,0.0,79,0.00,BKN,,0.00,WeatherDisplay:10.37,2013-02-05 05:55:00,
2013-02-05 01:00:00,48.7,42.5,30.01,South,180,0.0,0.0,79,0.00,BKN,,0.00,WeatherDisplay:10.37,2013-02-05 06:00:00,
2013-02-05 01:05:00,48.4,42.8,30.01,South,180,0.0,0.0,81,0.00,BKN,,0.00,WeatherDisplay:10.37,2013-02-05 06:05:00,
2013-02-05 01:10:00,48.0,42.5,30.02,South,180,0.0,0.0,81,0.00,BKN,,0.00,WeatherDisplay:10.37,2013-02-05 06:10:00,
2013-02-05 01:15:00,47.8,42.3,30.02,South,180,0.0,0.0,81,0.00,BKN,,0.00,WeatherDisplay:10.37,2013-02-05 06:15:00,
2013-02-05 01:20:00,47.5,42.3,30.02,South,180,0.0,0.0,82,0.00,BKN,,0.00,WeatherDisplay:10.37,2013-02-05 06:20:00,
2013-02-05 01:25:00,47.3,42.7,30.02,South,180,0.0,0.0,84,0.00,BKN,,0.00,WeatherDisplay:10.37,2013-02-05 06:25:00,
2013-02-05 01:30:00,47.3,42.4,30.02,South,180,0.0,0.0,83,0.00,BKN,,0.00,WeatherDisplay:10.37,2013-02-05 06:30:00,
2013-02-05 01:35:00,47.1,42.2,30.02,South,180,0.0,0.0,83,0.00,BKN,,0.00,WeatherDisplay:10.37,2013-02-05 06:35:00,
2013-02-05 01:40:00,46.9,42.0,30.01,South,180,0.0,0.0,83,0.00,BKN,,0.00,WeatherDisplay:10.37,2013-02-05 06:40:00,
2013-02-05 01:45:00,46.9,42.0,30.00,South,180,0.0,0.0,83,0.00,BKN,,0.00,WeatherDisplay:10.37,2013-02-05 06:45:00,
2013-02-05 01:50:00,46.8,41.9,30.00,South,180,0.0,0.0,83,0.00,BKN,,0.00,WeatherDisplay:10.37,2013-02-05 06:50:00,
2013-02-05 01:55:00,46.6,41.7,30.00,South,180,0.0,0.0,83,0.00,BKN,,0.00,WeatherDisplay:10.37,2013-02-05 06:55:00,
2013-02-05 02:00:00,46.6,42.0,30.00,South,180,0.0,0.0,84,0.00,BKN,,0.00,WeatherDisplay:10.37,2013-02-05 07:00:00,
2013-02-05 02:05:00,46.6,42.0,30.01,South,180,0.0,0.0,84,0.00,BKN,,0.00,WeatherDisplay:10.37,2013-02-05 07:05:00,
2013-02-05 02:10:00,46.6,42.0,30.01,South,180,0.0,0.0,84,0.00,BKN,,0.00,WeatherDisplay:10.37,2013-02-05 07:10:00,
2013-02-05 02:15:00,46.6,42.0,30.01,South,180,0.0,0.0,84,0.00,SCT,,0.00,WeatherDisplay:10.37,2013-02-05 07:15:00,
2013-02-05 02:20:00,46.4,41.8,30.01,South,180,0.0,0.0,84,0.00,SCT,,0.00,WeatherDisplay:10.37,2013-02-05 07:20:00,
2013-02-05 02:25:00,46.0,41.5,30.01,South,180,0.0,0.0,84,0.00,SCT,,0.00,WeatherDisplay:10.37,2013-02-05 07:25:00,
2013-02-05 02:30:00,46.0,41.5,30.00,South,180,0.0,0.0,84,0.00,SCT,,0.00,WeatherDisplay:10.37,2013-02-05 07:30:00,
2013-02-05 02:35:00,45.9,41.3,30.00,South,180,0.0,0.0,84,0.00,SCT,,0.00,WeatherDisplay:10.37,2013-02-05 07:35:00,
2013-02-05 02:40:00,45.5,41.3,30.01,South,180,0.0,0.0,85,0.00,SCT,,0.00,WeatherDisplay:10.37,2013-02-05 07:40:00,
2013-02-05 02:45:00,45.3,41.1,30.00,South,180,0.0,0.0,85,0.00,SCT,,0.00,WeatherDisplay:10.37,2013-02-05 07:45:00,
2013-02-05 02:50:00,45.3,41.1,30.00,South,180,0.0,0.0,85,0.00,SCT,,0.00,WeatherDisplay:10.37,2013-02-05 07:50:00,
2013-02-05 02:55:00,44.8,40.5,30.00,South,180,0.0,0.0,85,0.00,SCT,,0.00,WeatherDisplay:10.37,2013-02-05 07:55:00,
2013-02-05 03:00:00,44.4,40.2,30.00,South,180,0.0,0.0,85,0.00,SCT,,0.00,WeatherDisplay:10.37,2013-02-05 08:00:00,
2013-02-05 03:05:00,44.4,40.5,30.01,South,180,0.0,0.0,86,0.00,SCT,,0.00,WeatherDisplay:10.37,2013-02-05 08:05:00,
2013-02-05 03:10:00,43.9,40.0,30.00,South,180,0.0,0.0,86,0.00,SCT,,0.00,WeatherDisplay:10.37,2013-02-05 08:10:00,
2013-02-05 03:15:00,43.9,40.3,30.01,South,180,0.0,0.0,87,0.00,SCT,,0.00,WeatherDisplay:10.37,2013-02-05 08:15:00,
2013-02-05 03:20:00,43.5,39.9,30.00,South,180,0.0,0.0,87,0.00,SCT,,0.00,WeatherDisplay:10.37,2013-02-05 08:20:00,
2013-02-05 03:25:00,43.3,39.7,30.00,South,180,0.0,0.0,87,0.00,SCT,,0.00,WeatherDisplay:10.37,2013-02-05 08:25:00,
2013-02-05 03:30:00,43.2,39.6,30.00,South,180,0.0,0.0,87,0.00,SCT,,0.00,WeatherDisplay:10.37,2013-02-05 08:30:00,
2013-02-05 03:35:00,43.0,39.7,30.00,South,180,0.0,0.0,88,0.00,SCT,,0.00,WeatherDisplay:10.37,2013-02-05 08:35:00,
2013-02-05 03:40:00,42.8,39.5,30.00,South,180,0.0,0.0,88,0.00,SCT,,0.00,WeatherDisplay:10.37,2013-02-05 08:40:00,
2013-02-05 03:45:00,42.4,39.1,30.00,South,180,0.0,0.0,88,0.00,SCT,,0.00,WeatherDisplay:10.37,2013-02-05 08:45:00,
2013-02-05 03:50:00,42.4,39.4,30.01,South,180,0.0,0.0,89,0.00,SCT,,0.00,WeatherDisplay:10.37,2013-02-05 08:50:00,
2013-02-05 03:55:00,42.4,39.4,30.01,South,180,0.0,0.0,89,0.00,SCT,,0.00,WeatherDisplay:10.37,2013-02-05 08:55:00,
2013-02-05 04:00:00,42.1,39.1,30.00,South,180,0.0,0.0,89,0.00,SCT,,0.00,WeatherDisplay:10.37,2013-02-05 09:00:00,
2013-02-05 04:05:00,42.1,39.4,30.01,South,180,0.0,0.0,90,0.00,SCT,,0.00,WeatherDisplay:10.37,2013-02-05 09:05:00,
2013-02-05 04:10:00,42.1,39.4,30.01,South,180,0.0,0.0,90,0.00,SCT,,0.00,WeatherDisplay:10.37,2013-02-05 09:10:00,
2013-02-05 04:15:00,41.9,39.2,30.01,South,180,0.0,0.0,90,0.00,FEW,,0.00,WeatherDisplay:10.37,2013-02-05 09:15:00,
2013-02-05 04:20:00,41.9,39.2,30.01,South,180,0.0,0.0,90,0.00,FEW,,0.00,WeatherDisplay:10.37,2013-02-05 09:20:00,
2013-02-05 04:25:00,41.9,39.5,30.01,South,180,0.0,0.0,91,0.00,FEW,,0.00,WeatherDisplay:10.37,2013-02-05 09:25:00,
2013-02-05 04:30:00,41.7,39.0,30.01,South,180,0.0,0.0,90,0.00,FEW,,0.00,WeatherDisplay:10.37,2013-02-05 09:30:00,
2013-02-05 04:35:00,41.7,39.0,30.01,South,180,0.0,0.0,90,0.00,FEW,,0.00,WeatherDisplay:10.37,2013-02-05 09:35:00,
2013-02-05 04:40:00,41.7,39.3,30.01,South,180,0.0,0.0,91,0.00,FEW,,0.00,WeatherDisplay:10.37,2013-02-05 09:40:00,
2013-02-05 04:45:00,41.7,39.3,30.01,South,180,0.0,0.0,91,0.00,FEW,,0.00,WeatherDisplay:10.37,2013-02-05 09:45:00,
2013-02-05 04:50:00,41.7,39.3,30.01,South,180,0.0,0.0,91,0.00,FEW,,0.00,WeatherDisplay:10.37,2013-02-05 09:50:00,
2013-02-05 04:55:00,41.9,39.5,30.01,South,180,0.0,0.0,91,0.00,FEW,,0.00,WeatherDisplay:10.37,2013-02-05 09:55:00,
2013-02-05 05:00:00,42.1,39.9,30.01,South,180,0.0,0.0,92,0.00,FEW,,0.00,WeatherDisplay:10.37,2013-02-05 10:00:00,
2013-02-05 05:05:00,42.1,39.6,30.01,South,180,0.0,0.0,91,0.00,FEW,,0.00,WeatherDisplay:10.37,2013-02-05 10:05:00,
2013-02-05 05:10:00,42.1,39.6,30.01,South,180,0.0,0.0,91,0.00,FEW,,0.00,WeatherDisplay:10.37,2013-02-05 10:10:00,
2013-02-05 05:15:00,42.4,40.0,30.01,South,180,0.0,0.0,91,0.00,BKN,,0.00,WeatherDisplay:10.37,2013-02-05 10:15:00,
2013-02-05 05:20:00,42.4,40.0,30.01,South,180,0.0,0.0,91,0.00,BKN,,0.00,WeatherDisplay:10.37,2013-02-05 10:20:00,
2013-02-05 05:25:00,42.6,40.2,30.00,South,180,0.0,0.0,91,0.00,BKN,,0.00,WeatherDisplay:10.37,2013-02-05 10:25:00,
2013-02-05 05:30:00,43.0,40.5,30.01,South,180,0.0,0.0,91,0.00,BKN,,0.00,WeatherDisplay:10.37,2013-02-05 10:30:00,
2013-02-05 05:35:00,43.3,40.9,30.01,South,180,0.0,0.0,91,0.00,BKN,,0.00,WeatherDisplay:10.37,2013-02-05 10:35:00,
2013-02-05 05:40:00,43.3,40.9,30.01,South,180,0.0,0.0,91,0.00,BKN,,0.00,WeatherDisplay:10.37,2013-02-05 10:40:00,
2013-02-05 05:45:00,43.3,40.9,30.01,South,180,0.0,0.0,91,0.00,BKN,,0.00,WeatherDisplay:10.37,2013-02-05 10:45:00,
2013-02-05 05:50:00,43.3,40.9,30.01,South,180,0.0,0.0,91,0.00,BKN,,0.00,WeatherDisplay:10.37,2013-02-05 10:50:00,
2013-02-05 05:55:00,43.3,40.9,30.02,South,180,0.0,0.0,91,0.00,BKN,,0.00,WeatherDisplay:10.37,2013-02-05 10:55:00,
2013-02-05 06:00:00,43.3,40.9,30.02,South,180,0.0,0.0,91,0.00,BKN,,0.00,WeatherDisplay:10.37,2013-02-05 11:00:00,
2013-02-05 06:05:00,43.2,40.4,30.02,South,180,0.0,0.0,90,0.00,BKN,,0.00,WeatherDisplay:10.37,2013-02-05 11:05:00,
2013-02-05 06:10:00,42.8,40.1,30.02,South,180,0.0,0.0,90,0.00,BKN,,0.00,WeatherDisplay:10.37,2013-02-05 11:10:00,
2013-02-05 06:15:00,42.6,40.2,30.02,South,180,0.0,0.0,91,0.00,BKN,,0.00,WeatherDisplay:10.37,2013-02-05 11:15:00,
2013-02-05 06:20:00,42.4,40.0,30.03,South,180,0.0,0.0,91,0.00,BKN,,0.00,WeatherDisplay:10.37,2013-02-05 11:20:00,
2013-02-05 06:25:00,42.4,40.0,30.03,South,180,0.0,0.0,91,0.00,BKN,,0.00,WeatherDisplay:10.37,2013-02-05 11:25:00,
2013-02-05 06:30:00,42.3,39.8,30.03,South,180,0.0,0.0,91,0.00,BKN,,0.00,WeatherDisplay:10.37,2013-02-05 11:30:00,
2013-02-05 06:35:00,42.3,39.8,30.03,South,180,0.0,0.0,91,0.00,BKN,,0.00,WeatherDisplay:10.37,2013-02-05 11:35:00,
2013-02-05 06:40:00,42.1,39.6,30.03,South,180,0.0,0.0,91,0.00,BKN,,0.00,WeatherDisplay:10.37,2013-02-05 11:40:00,
2013-02-05 06:45:00,42.3,40.1,30.04,South,180,0.0,0.0,92,0.00,BKN,,0.00,WeatherDisplay:10.37,2013-02-05 11:45:00,
2013-02-05 06:50:00,42.4,40.3,30.05,South,180,0.0,0.0,92,0.00,BKN,,0.00,WeatherDisplay:10.37,2013-02-05 11:50:00,
2013-02-05 06:55:00,42.4,40.3,30.05,South,180,0.0,0.0,92,0.00,BKN,,0.00,WeatherDisplay:10.37,2013-02-05 11:55:00,
2013-02-05 07:00:00,42.4,40.3,30.05,South,180,0.0,0.0,92,0.00,BKN,,0.00,WeatherDisplay:10.37,2013-02-05 12:00:00,
2013-02-05 07:05:00,42.3,40.1,30.05,South,180,0.0,0.0,92,0.00,BKN,,0.00,WeatherDisplay:10.37,2013-02-05 12:05:00,
2013-02-05 07:10:00,42.1,39.9,30.05,South,180,0.0,0.0,92,0.00,BKN,,0.00,WeatherDisplay:10.37,2013-02-05 12:10:00,
2013-02-05 07:15:00,42.1,40.2,30.05,South,180,0.0,0.0,93,0.00,BKN,,0.00,WeatherDisplay:10.37,2013-02-05 12:15:00,
2013-02-05 07:20:00,41.7,39.6,30.05,South,180,0.0,0.0,92,0.00,BKN,,0.00,WeatherDisplay:10.37,2013-02-05 12:20:00,
2013-02-05 07:25:00,41.7,39.6,30.05,South,180,0.0,0.0,92,0.00,BKN,,0.00,WeatherDisplay:10.37,2013-02-05 12:25:00,
2013-02-05 07:30:00,41.5,39.7,30.05,South,180,0.0,0.0,93,0.00,BKN,,0.00,WeatherDisplay:10.37,2013-02-05 12:30:00,
2013-02-05 07:35:00,41.5,39.7,30.05,South,180,0.0,0.0,93,0.00,BKN,,0.00,WeatherDisplay:10.37,2013-02-05 12:35:00,
2013-02-05 07:40:00,41.7,39.8,30.05,South,180,0.0,0.0,93,0.00,BKN,,0.00,WeatherDisplay:10.37,2013-02-05 12:40:00,
2013-02-05 07:45:00,41.7,39.8,30.05,South,180,0.0,0.0,93,0.00,BKN,,0.00,WeatherDisplay:10.37,2013-02-05 12:45:00,
2013-02-05 07:50:00,41.9,40.0,30.05,South,180,0.0,0.0,93,0.00,BKN,,0.00,WeatherDisplay:10.37,2013-02-05 12:50:00,
2013-02-05 07:55:00,42.3,40.4,30.06,South,180,0.0,0.0,93,0.00,BKN,,0.00,WeatherDisplay:10.37,2013-02-05 12:55:00,
2013-02-05 08:00:00,42.4,40.6,30.06,South,180,0.0,0.0,93,0.00,BKN,,0.00,WeatherDisplay:10.37,2013-02-05 13:00:00,
2013-02-05 08:05:00,43.5,41.4,30.06,South,180,0.0,0.0,92,0.00,BKN,,0.00,WeatherDisplay:10.37,2013-02-05 13:05:00,
2013-02-05 08:10:00,44.2,42.1,30.05,South,180,0.0,0.0,92,0.00,BKN,,0.00,WeatherDisplay:10.37,2013-02-05 13:10:00,
2013-02-05 08:15:00,45.0,42.8,30.05,South,180,0.0,0.0,92,0.00,BKN,,0.00,WeatherDisplay:10.37,2013-02-05 13:15:00,
2013-02-05 08:20:00,46.0,43.8,30.05,South,180,0.0,0.0,92,0.00,BKN,,0.00,WeatherDisplay:10.37,2013-02-05 13:20:00,
2013-02-05 08:25:00,47.1,44.3,30.06,South,180,0.0,0.0,90,0.00,BKN,,0.00,WeatherDisplay:10.37,2013-02-05 13:25:00,
2013-02-05 08:30:00,47.8,44.5,30.06,South,180,0.0,0.0,88,0.00,BKN,,0.00,WeatherDisplay:10.37,2013-02-05 13:30:00,
2013-02-05 08:35:00,48.4,44.1,30.06,South,180,0.0,0.0,85,0.00,BKN,,0.00,WeatherDisplay:10.37,2013-02-05 13:35:00,
2013-02-05 08:40:00,49.3,44.3,30.07,South,180,0.0,0.0,83,0.00,BKN,,0.00,WeatherDisplay:10.37,2013-02-05 13:40:00,
2013-02-05 08:45:00,49.8,43.2,30.06,South,180,0.0,0.0,78,0.00,BKN,,0.00,WeatherDisplay:10.37,2013-02-05 13:45:00,
2013-02-05 08:50:00,50.5,43.3,30.06,South,180,0.0,0.0,76,0.00,BKN,,0.00,WeatherDisplay:10.37,2013-02-05 13:50:00,
2013-02-05 08:55:00,51.6,44.0,30.06,South,180,0.0,0.0,75,0.00,BKN,,0.00,WeatherDisplay:10.37,2013-02-05 13:55:00,
2013-02-05 09:00:00,52.7,42.8,30.06,South,180,0.0,0.0,69,0.00,BKN,,0.00,WeatherDisplay:10.37,2013-02-05 14:00:00,
2013-02-05 09:05:00,54.3,41.6,30.06,South,180,0.0,0.0,62,0.00,BKN,,0.00,WeatherDisplay:10.37,2013-02-05 14:05:00,
2013-02-05 09:10:00,55.6,42.8,30.06,South,180,0.0,0.0,62,0.00,BKN,,0.00,WeatherDisplay:10.37,2013-02-05 14:10:00,
2013-02-05 09:15:00,56.5,43.6,30.06,South,180,0.0,0.0,62,0.00,BKN,,0.00,WeatherDisplay:10.37,2013-02-05 14:15:00,
2013-02-05 09:20:00,56.8,43.1,30.07,South,180,0.0,0.0,60,0.00,BKN,,0.00,WeatherDisplay:10.37,2013-02-05 14:20:00,
2013-02-05 09:25:00,57.6,43.3,30.07,South,180,0.0,0.0,59,0.00,BKN,,0.00,WeatherDisplay:10.37,2013-02-05 14:25:00,
2013-02-05 09:30:00,57.7,43.1,30.07,South,180,0.0,0.0,58,0.00,BKN,,0.00,WeatherDisplay:10.37,2013-02-05 14:30:00,
2013-02-05 09:35:00,58.3,44.0,30.07,South,180,0.0,0.0,59,0.00,BKN,,0.00,WeatherDisplay:10.37,2013-02-05 14:35:00,
2013-02-05 09:40:00,58.6,43.9,30.07,South,180,0.0,0.0,58,0.00,BKN,,0.00,WeatherDisplay:10.37,2013-02-05 14:40:00,
2013-02-05 09:45:00,59.0,44.2,30.07,South,180,0.0,0.0,58,0.00,BKN,,0.00,WeatherDisplay:10.37,2013-02-05 14:45:00,
2013-02-05 09:50:00,59.4,45.5,30.07,South,180,0.0,0.0,60,0.00,BKN,,0.00,WeatherDisplay:10.37,2013-02-05 14:50:00,
2013-02-05 09:55:00,59.5,44.7,30.07,South,180,0.0,0.0,58,0.00,BKN,,0.00,WeatherDisplay:10.37,2013-02-05 14:55:00,
2013-02-05 10:00:00,59.7,43.0,30.08,South,180,0.0,0.0,54,0.00,BKN,,0.00,WeatherDisplay:10.37,2013-02-05 15:00:00,
2013-02-05 10:05:00,59.7,43.5,30.08,South,180,0.0,0.0,55,0.00,BKN,,0.00,WeatherDisplay:10.37,2013-02-05 15:05:00,
2013-02-05 10:10:00,60.1,42.9,30.08,South,180,0.0,0.0,53,0.00,BKN,,0.00,WeatherDisplay:10.37,2013-02-05 15:10:00,
2013-02-05 10:15:00,60.3,42.0,30.07,South,180,0.0,0.0,51,0.00,BKN,,0.00,WeatherDisplay:10.37,2013-02-05 15:15:00,
2013-02-05 10:20:00,60.4,42.2,30.08,South,180,0.0,0.0,51,0.00,BKN,,0.00,WeatherDisplay:10.37,2013-02-05 15:20:00,
2013-02-05 10:25:00,60.6,41.3,30.08,South,180,0.0,0.0,49,0.00,BKN,,0.00,WeatherDisplay:10.37,2013-02-05 15:25:00,
2013-02-05 10:29:00,61.3,40.9,30.08,South,180,0.0,0.0,47,0.00,BKN,,0.00,WeatherDisplay:10.37,2013-02-05 15:29:00,
2013-02-05 10:34:00,61.9,40.3,30.08,South,180,0.0,0.0,45,0.00,BKN,,0.00,WeatherDisplay:10.37,2013-02-05 15:34:00,
2013-02-05 10:39:00,61.9,39.1,30.08,South,180,0.0,0.0,43,0.00,BKN,,0.00,WeatherDisplay:10.37,2013-02-05 15:39:00,
2013-02-05 10:44:00,61.7,40.1,30.07,South,180,0.0,0.0,45,0.00,BKN,,0.00,WeatherDisplay:10.37,2013-02-05 15:44:00,
2013-02-05 10:49:00,61.9,40.3,30.08,South,180,0.0,0.0,45,0.00,BKN,,0.00,WeatherDisplay:10.37,2013-02-05 15:49:00,
2013-02-05 10:54:00,61.9,42.0,30.08,South,180,0.0,0.0,48,0.00,BKN,,0.00,WeatherDisplay:10.37,2013-02-05 15:54:00,
2013-02-05 10:59:00,62.4,40.8,30.07,South,180,0.0,0.0,45,0.00,BKN,,0.00,WeatherDisplay:10.37,2013-02-05 15:59:00,
2013-02-05 11:04:00,62.4,40.2,30.07,South,180,0.0,0.0,44,0.00,BKN,,0.00,WeatherDisplay:10.37,2013-02-05 16:04:00,
2013-02-05 11:09:00,62.4,41.9,30.07,South,180,0.0,0.0,47,0.00,OVC,,0.00,WeatherDisplay:10.37,2013-02-05 16:09:00,
2013-02-05 11:14:00,62.4,40.8,30.07,South,180,0.0,0.0,45,0.00,OVC,,0.00,WeatherDisplay:10.37,2013-02-05 16:14:00,
2013-02-05 11:19:00,62.2,41.2,30.07,South,180,0.0,0.0,46,0.00,OVC,,0.00,WeatherDisplay:10.37,2013-02-05 16:19:00,
2013-02-05 11:24:00,62.8,41.7,30.07,South,180,0.0,0.0,46,0.00,OVC,,0.00,WeatherDisplay:10.37,2013-02-05 16:24:00,
2013-02-05 11:29:00,62.8,41.7,30.07,South,180,0.0,0.0,46,0.00,OVC,,0.00,WeatherDisplay:10.37,2013-02-05 16:29:00,
2013-02-05 11:34:00,63.1,42.6,30.07,South,180,0.0,0.0,47,0.00,OVC,,0.00,WeatherDisplay:10.37,2013-02-05 16:34:00,
2013-02-05 11:39:00,64.0,42.8,30.07,South,180,0.0,0.0,46,0.00,OVC,,0.00,WeatherDisplay:10.37,2013-02-05 16:39:00,
2013-02-05 11:44:00,63.9,40.9,30.07,South,180,0.0,0.0,43,0.00,OVC,,0.00,WeatherDisplay:10.37,2013-02-05 16:44:00,
2013-02-05 11:49:00,63.7,41.3,30.06,South,180,0.0,0.0,44,0.00,OVC,,0.00,WeatherDisplay:10.37,2013-02-05 16:49:00,
2013-02-05 11:54:00,63.9,42.7,30.06,South,180,0.0,0.0,46,0.00,OVC,,0.00,WeatherDisplay:10.37,2013-02-05 16:54:00,
2013-02-05 11:59:00,65.1,42.7,30.06,South,180,0.0,0.0,44,0.00,OVC,,0.00,WeatherDisplay:10.37,2013-02-05 16:59:00,
2013-02-05 12:04:00,64.9,40.7,30.05,South,180,0.0,0.0,41,0.00,OVC,,0.00,WeatherDisplay:10.37,2013-02-05 17:04:00,
2013-02-05 12:09:00,64.8,40.5,30.05,South,180,0.0,0.0,41,0.00,OVC,,0.00,WeatherDisplay:10.37,2013-02-05 17:09:00,
2013-02-05 12:14:00,64.9,40.0,30.05,South,180,0.0,0.0,40,0.00,OVC,,0.00,WeatherDisplay:10.37,2013-02-05 17:14:00,
2013-02-05 12:19:00,65.5,41.1,30.05,South,180,0.0,0.0,41,0.00,BKN,,0.00,WeatherDisplay:10.37,2013-02-05 17:19:00,
2013-02-05 12:24:00,66.4,42.6,30.05,South,180,0.0,0.0,42,0.00,BKN,,0.00,WeatherDisplay:10.37,2013-02-05 17:24:00,
2013-02-05 12:29:00,65.8,41.5,30.05,South,180,0.0,0.0,41,0.00,BKN,,0.00,WeatherDisplay:10.37,2013-02-05 17:29:00,
2013-02-05 12:34:00,66.6,41.5,30.04,South,180,0.0,0.0,40,0.00,BKN,,0.00,WeatherDisplay:10.37,2013-02-05 17:34:00,
2013-02-05 12:39:00,67.5,42.9,30.04,South,180,0.4,2.8,41,0.00,BKN,,0.00,WeatherDisplay:10.37,2013-02-05 17:39:00,
2013-02-05 12:44:00,68.5,43.2,30.04,South,180,0.3,2.8,40,0.00,BKN,,0.00,WeatherDisplay:10.37,2013-02-05 17:44:00,
2013-02-05 12:49:00,67.6,41.8,30.04,South,180,0.0,0.0,39,0.00,BKN,,0.00,WeatherDisplay:10.37,2013-02-05 17:49:00,
2013-02-05 12:54:00,67.1,42.6,30.03,South,180,0.0,0.0,41,0.00,BKN,,0.00,WeatherDisplay:10.37,2013-02-05 17:54:00,
2013-02-05 12:59:00,66.7,44.1,30.02,South,180,0.0,0.0,44,0.00,BKN,,0.00,WeatherDisplay:10.37,2013-02-05 17:59:00,
2013-02-05 13:04:00,66.6,44.0,30.02,South,180,0.0,0.0,44,0.00,BKN,,0.00,WeatherDisplay:10.37,2013-02-05 18:04:00,
2013-02-05 13:09:00,66.4,43.8,30.02,South,180,0.0,0.0,44,0.00,BKN,,0.00,WeatherDisplay:10.37,2013-02-05 18:09:00,
2013-02-05 13:14:00,66.7,44.7,30.02,South,180,0.6,2.3,45,0.00,BKN,,0.00,WeatherDisplay:10.37,2013-02-05 18:14:00,
2013-02-05 13:19:00,66.9,44.9,30.02,South,180,0.0,0.0,45,0.00,BKN,,0.00,WeatherDisplay:10.37,2013-02-05 18:19:00,
2013-02-05 13:24:00,67.3,45.2,30.02,NE,45,0.0,1.1,45,0.00,BKN,,0.00,WeatherDisplay:10.37,2013-02-05 18:24:00,
2013-02-05 13:29:00,67.3,45.8,30.01,NE,45,0.0,1.1,46,0.00,BKN,,0.00,WeatherDisplay:10.37,2013-02-05 18:29:00,
2013-02-05 13:34:00,67.6,45.5,30.01,NE,45,0.0,0.0,45,0.00,BKN,,0.00,WeatherDisplay:10.37,2013-02-05 18:34:00,
2013-02-05 13:39:00,67.6,45.5,30.00,NE,45,0.0,0.0,45,0.00,BKN,,0.00,WeatherDisplay:10.37,2013-02-05 18:39:00,
2013-02-05 13:44:00,67.6,46.1,30.00,NE,45,0.0,0.0,46,0.00,BKN,,0.00,WeatherDisplay:10.37,2013-02-05 18:44:00,
2013-02-05 13:49:00,67.1,45.6,30.00,NE,45,0.0,2.3,46,0.00,BKN,,0.00,WeatherDisplay:10.37,2013-02-05 18:49:00,
2013-02-05 13:54:00,66.9,45.5,30.00,NE,45,0.7,2.3,46,0.00,BKN,,0.00,WeatherDisplay:10.37,2013-02-05 18:54:00,
2013-02-05 13:59:00,66.9,46.0,30.00,NE,45,0.0,0.0,47,0.00,BKN,,0.00,WeatherDisplay:10.37,2013-02-05 18:59:00,
2013-02-05 14:04:00,67.6,46.7,30.00,NE,45,0.1,2.3,47,0.00,BKN,,0.00,WeatherDisplay:10.37,2013-02-05 19:04:00,
2013-02-05 14:09:00,67.8,46.3,30.00,NE,45,0.0,0.0,46,0.00,BKN,,0.00,WeatherDisplay:10.37,2013-02-05 19:09:00,
2013-02-05 14:14:00,67.8,46.8,30.00,NE,45,0.7,2.3,47,0.00,BKN,,0.00,WeatherDisplay:10.37,2013-02-05 19:14:00,
2013-02-05 14:19:00,68.2,47.2,29.99,NE,45,1.1,2.8,47,0.00,BKN,,0.00,WeatherDisplay:10.37,2013-02-05 19:19:00,
2013-02-05 14:24:00,68.0,45.9,29.99,South,180,0.0,0.0,45,0.00,BKN,,0.00,WeatherDisplay:10.37,2013-02-05 19:24:00,
2013-02-05 14:29:00,67.8,46.8,29.99,South,180,0.0,0.0,47,0.00,BKN,,0.00,WeatherDisplay:10.37,2013-02-05 19:29:00,
2013-02-05 14:34:00,68.2,47.2,29.99,South,180,0.1,1.1,47,0.00,BKN,,0.00,WeatherDisplay:10.37,2013-02-05 19:34:00,
2013-02-05 14:39:00,68.5,46.9,30.00,SE,135,0.0,0.0,46,0.00,BKN,,0.00,WeatherDisplay:10.37,2013-02-05 19:39:00,
2013-02-05 14:44:00,68.2,46.6,30.00,SW,225,0.1,4.6,46,0.00,BKN,,0.00,WeatherDisplay:10.37,2013-02-05 19:44:00,
2013-02-05 14:49:00,69.1,46.8,29.99,SW,225,0.0,2.3,45,0.00,BKN,,0.00,WeatherDisplay:10.37,2013-02-05 19:49:00,
2013-02-05 14:54:00,69.4,47.8,30.00,NW,315,0.0,0.0,46,0.00,BKN,,0.00,WeatherDisplay:10.37,2013-02-05 19:54:00,
2013-02-05 14:59:00,69.1,48.0,29.99,NW,315,0.0,0.0,47,0.00,BKN,,0.00,WeatherDisplay:10.37,2013-02-05 19:59:00,
2013-02-05 15:04:00,68.7,47.1,29.99,NW,315,0.0,0.0,46,0.00,BKN,,0.00,WeatherDisplay:10.37,2013-02-05 20:04:00,
2013-02-05 15:09:00,68.2,46.6,29.99,NW,315,0.0,0.0,46,0.00,BKN,,0.00,WeatherDisplay:10.37,2013-02-05 20:09:00,
2013-02-05 15:14:00,68.4,47.9,29.99,NW,315,0.0,0.0,48,0.00,BKN,,0.00,WeatherDisplay:10.37,2013-02-05 20:14:00,
2013-02-05 15:19:00,68.5,47.5,29.99,NW,315,0.0,0.0,47,0.00,BKN,,0.00,WeatherDisplay:10.37,2013-02-05 20:19:00,
2013-02-05 15:24:00,69.1,49.1,29.99,West,270,0.0,0.0,49,0.00,BKN,,0.00,WeatherDisplay:10.37,2013-02-05 20:24:00,
2013-02-05 15:29:00,69.6,49.1,29.99,West,270,0.0,0.0,48,0.00,BKN,,0.00,WeatherDisplay:10.37,2013-02-05 20:29:00,
2013-02-05 15:34:00,69.8,48.7,29.98,West,270,0.0,0.0,47,0.00,BKN,,0.00,WeatherDisplay:10.37,2013-02-05 20:34:00,
2013-02-05 15:39:00,70.3,48.6,29.98,West,270,0.0,0.0,46,0.00,BKN,,0.00,WeatherDisplay:10.37,2013-02-05 20:39:00,
2013-02-05 15:44:00,70.0,48.8,29.98,West,270,0.0,0.0,47,0.00,BKN,,0.00,WeatherDisplay:10.37,2013-02-05 20:44:00,
2013-02-05 15:49:00,70.3,49.7,29.98,West,270,0.1,1.1,48,0.00,BKN,,0.00,WeatherDisplay:10.37,2013-02-05 20:49:00,
2013-02-05 15:54:00,70.9,49.6,29.98,West,270,0.0,1.1,47,0.00,BKN,,0.00,WeatherDisplay:10.37,2013-02-05 20:54:00,
2013-02-05 15:59:00,70.9,49.1,29.98,West,270,0.0,0.0,46,0.00,BKN,,0.00,WeatherDisplay:10.37,2013-02-05 20:59:00,
2013-02-05 16:04:00,70.5,49.9,29.98,West,270,0.0,0.0,48,0.00,BKN,,0.00,WeatherDisplay:10.37,2013-02-05 21:04:00,
2013-02-05 16:09:00,70.9,49.6,29.99,West,270,0.5,2.3,47,0.00,BKN,,0.00,WeatherDisplay:10.37,2013-02-05 21:09:00,
2013-02-05 16:14:00,70.5,49.9,29.99,West,270,0.0,0.0,48,0.00,BKN,,0.00,WeatherDisplay:10.37,2013-02-05 21:14:00,
2013-02-05 16:19:00,70.5,49.9,29.98,West,270,0.0,0.0,48,0.00,BKN,,0.00,WeatherDisplay:10.37,2013-02-05 21:19:00,
2013-02-05 16:24:00,70.2,50.6,29.98,East,90,0.0,0.0,50,0.00,BKN,,0.00,WeatherDisplay:10.37,2013-02-05 21:24:00,
2013-02-05 16:29:00,69.6,49.6,29.98,East,90,0.0,0.0,49,0.00,BKN,,0.00,WeatherDisplay:10.37,2013-02-05 21:29:00,
2013-02-05 16:34:00,69.4,50.0,29.98,East,90,0.0,0.0,50,0.00,BKN,,0.00,WeatherDisplay:10.37,2013-02-05 21:34:00,
2013-02-05 16:39:00,69.1,50.2,29.98,East,90,0.0,0.0,51,0.00,BKN,,0.00,WeatherDisplay:10.37,2013-02-05 21:39:00,
2013-02-05 16:44:00,68.9,50.0,29.99,East,90,0.0,0.0,51,0.00,BKN,,0.00,WeatherDisplay:10.37,2013-02-05 21:44:00,
2013-02-05 16:49:00,68.7,50.4,29.99,East,90,0.0,0.0,52,0.00,BKN,,0.00,WeatherDisplay:10.37,2013-02-05 21:49:00,
2013-02-05 16:54:00,68.5,51.2,29.98,East,90,0.0,0.0,54,0.00,BKN,,0.00,WeatherDisplay:10.37,2013-02-05 21:54:00,
2013-02-05 16:59:00,67.8,50.1,29.99,East,90,0.0,0.0,53,0.00,BKN,,0.00,WeatherDisplay:10.37,2013-02-05 21:59:00,
2013-02-05 17:04:00,67.8,50.1,29.98,East,90,0.0,0.0,53,0.00,BKN,,0.00,WeatherDisplay:10.37,2013-02-05 22:04:00,
2013-02-05 17:09:00,67.6,49.9,29.98,East,90,0.0,0.0,53,0.00,BKN,,0.00,WeatherDisplay:10.37,2013-02-05 22:09:00,
2013-02-05 17:14:00,67.3,50.1,29.98,East,90,0.0,0.0,54,0.00,BKN,,0.00,WeatherDisplay:10.37,2013-02-05 22:14:00,
2013-02-05 17:19:00,67.3,50.6,29.98,East,90,0.0,0.0,55,0.00,BKN,,0.00,WeatherDisplay:10.37,2013-02-05 22:19:00,
2013-02-05 17:24:00,67.3,51.5,29.98,East,90,0.0,0.0,57,0.00,BKN,,0.00,WeatherDisplay:10.37,2013-02-05 22:24:00,
2013-02-05 17:29:00,66.7,51.0,29.98,East,90,0.0,0.0,57,0.00,BKN,,0.00,WeatherDisplay:10.37,2013-02-05 22:29:00,
2013-02-05 17:34:00,66.6,51.3,29.98,East,90,0.0,0.0,58,0.00,BKN,,0.00,WeatherDisplay:10.37,2013-02-05 22:34:00,
2013-02-05 17:39:00,66.2,51.9,29.98,East,90,0.0,0.0,60,0.00,BKN,,0.00,WeatherDisplay:10.37,2013-02-05 22:39:00,
2013-02-05 17:44:00,65.8,51.1,29.98,East,90,0.0,0.0,59,0.00,BKN,,0.00,WeatherDisplay:10.37,2013-02-05 22:44:00,
2013-02-05 17:49:00,65.8,51.1,29.98,East,90,0.0,0.0,59,0.00,BKN,,0.00,WeatherDisplay:10.37,2013-02-05 22:49:00,
2013-02-05 17:54:00,65.3,51.1,29.98,East,90,0.0,0.0,60,0.00,BKN,,0.00,WeatherDisplay:10.37,2013-02-05 22:54:00,
2013-02-05 17:59:00,64.9,50.7,29.97,East,90,0.0,0.0,60,0.00,BKN,,0.00,WeatherDisplay:10.37,2013-02-05 22:59:00,
2013-02-05 18:04:00,64.8,50.5,29.97,East,90,0.0,0.0,60,0.00,BKN,,0.00,WeatherDisplay:10.37,2013-02-05 23:04:00,
2013-02-05 18:09:00,64.4,50.7,29.97,East,90,0.0,0.0,61,0.00,BKN,,0.00,WeatherDisplay:10.37,2013-02-05 23:09:00,
2013-02-05 18:14:00,64.0,50.3,29.97,East,90,0.0,0.0,61,0.00,BKN,,0.00,WeatherDisplay:10.37,2013-02-05 23:14:00,
2013-02-05 18:19:00,63.7,50.8,29.98,East,90,0.0,0.0,63,0.00,BKN,,0.00,WeatherDisplay:10.37,2013-02-05 23:19:00,
2013-02-05 18:24:00,63.5,50.2,29.98,East,90,0.0,0.0,62,0.00,BKN,,0.00,WeatherDisplay:10.37,2013-02-05 23:24:00,
2013-02-05 18:29:00,63.0,50.2,29.98,East,90,0.0,0.0,63,0.00,BKN,,0.00,WeatherDisplay:10.37,2013-02-05 23:29:00,
2013-02-05 18:34:00,62.4,49.7,29.98,East,90,0.0,0.0,63,0.00,BKN,,0.00,WeatherDisplay:10.37,2013-02-05 23:34:00,
2013-02-05 18:39:00,62.1,49.7,29.98,East,90,0.0,0.0,64,0.00,BKN,,0.00,WeatherDisplay:10.37,2013-02-05 23:39:00,
2013-02-05 18:44:00,61.3,49.5,29.99,East,90,0.0,0.0,65,0.00,BKN,,0.00,WeatherDisplay:10.37,2013-02-05 23:44:00,
2013-02-05 18:49:00,61.3,49.5,29.99,East,90,0.0,0.0,65,0.00,BKN,,0.00,WeatherDisplay:10.37,2013-02-05 23:49:00,
2013-02-05 18:54:00,60.8,49.0,29.98,East,90,0.0,0.0,65,0.00,BKN,,0.00,WeatherDisplay:10.37,2013-02-05 23:54:00,
2013-02-05 18:59:00,60.6,49.2,29.99,East,90,0.0,0.0,66,0.00,BKN,,0.00,WeatherDisplay:10.37,2013-02-05 23:59:00,
2013-02-05 19:04:00,60.6,49.2,29.99,East,90,0.0,0.0,66,0.00,BKN,,0.00,WeatherDisplay:10.37,2013-02-06 00:04:00,
2013-02-05 19:09:00,60.6,50.4,29.99,East,90,0.0,0.0,69,0.00,BKN,,0.00,WeatherDisplay:10.37,2013-02-06 00:09:00,
2013-02-05 19:14:00,60.4,49.8,29.99,East,90,0.0,0.0,68,0.00,BKN,,0.00,WeatherDisplay:10.37,2013-02-06 00:14:00,
2013-02-05 19:19:00,60.3,49.7,29.99,East,90,0.0,0.0,68,0.00,BKN,,0.00,WeatherDisplay:10.37,2013-02-06 00:19:00,
2013-02-05 19:24:00,60.1,49.5,29.99,East,90,0.0,0.0,68,0.00,BKN,,0.00,WeatherDisplay:10.37,2013-02-06 00:24:00,
2013-02-05 19:29:00,60.1,49.5,29.99,East,90,0.0,0.0,68,0.00,BKN,,0.00,WeatherDisplay:10.37,2013-02-06 00:29:00,
2013-02-05 19:34:00,59.9,50.1,29.99,East,90,0.0,0.0,70,0.00,BKN,,0.00,WeatherDisplay:10.37,2013-02-06 00:34:00,
2013-02-05 19:39:00,59.9,49.7,29.99,East,90,0.0,0.0,69,0.00,BKN,,0.00,WeatherDisplay:10.37,2013-02-06 00:39:00,
2013-02-05 19:44:00,59.7,49.5,30.00,East,90,0.0,0.0,69,0.00,BKN,,0.00,WeatherDisplay:10.37,2013-02-06 00:44:00,
2013-02-05 19:49:00,59.4,49.2,30.00,East,90,0.0,0.0,69,0.00,BKN,,0.00,WeatherDisplay:10.37,2013-02-06 00:49:00,
2013-02-05 19:54:00,59.2,49.8,30.00,East,90,0.0,0.0,71,0.00,BKN,,0.00,WeatherDisplay:10.37,2013-02-06 00:54:00,
2013-02-05 19:59:00,59.2,49.4,30.00,East,90,0.0,0.0,70,0.00,BKN,,0.00,WeatherDisplay:10.37,2013-02-06 00:59:00,
2013-02-05 20:04:00,59.2,49.8,30.00,East,90,0.0,0.0,71,0.00,BKN,,0.00,WeatherDisplay:10.37,2013-02-06 01:04:00,
2013-02-05 20:09:00,59.0,49.6,30.01,East,90,0.0,0.0,71,0.00,BKN,,0.00,WeatherDisplay:10.37,2013-02-06 01:09:00,
2013-02-05 20:14:00,58.8,49.8,30.01,East,90,0.0,0.0,72,0.00,BKN,,0.00,WeatherDisplay:10.37,2013-02-06 01:14:00,
2013-02-05 20:19:00,58.8,49.8,30.01,East,90,0.0,0.0,72,0.00,BKN,,0.00,WeatherDisplay:10.37,2013-02-06 01:19:00,
2013-02-05 20:24:00,58.6,49.6,30.01,East,90,0.0,0.0,72,0.00,BKN,,0.00,WeatherDisplay:10.37,2013-02-06 01:24:00,
2013-02-05 20:29:00,58.6,49.6,30.01,East,90,0.0,0.0,72,0.00,BKN,,0.00,WeatherDisplay:10.37,2013-02-06 01:29:00,
2013-02-05 20:34:00,58.6,49.6,30.01,East,90,0.0,0.0,72,0.00,BKN,,0.00,WeatherDisplay:10.37,2013-02-06 01:34:00,
2013-02-05 20:39:00,58.8,49.8,30.01,East,90,0.0,0.0,72,0.00,BKN,,0.00,WeatherDisplay:10.37,2013-02-06 01:39:00,
2013-02-05 20:44:00,58.6,50.0,30.02,East,90,0.0,0.0,73,0.00,BKN,,0.00,WeatherDisplay:10.37,2013-02-06 01:44:00,
2013-02-05 20:49:00,58.6,50.0,30.02,East,90,0.0,0.0,73,0.00,BKN,,0.00,WeatherDisplay:10.37,2013-02-06 01:49:00,
2013-02-05 20:54:00,58.6,50.4,30.02,East,90,0.0,0.0,74,0.00,BKN,,0.00,WeatherDisplay:10.37,2013-02-06 01:54:00,
2013-02-05 20:59:00,58.6,50.0,30.02,East,90,0.0,0.0,73,0.00,BKN,,0.00,WeatherDisplay:10.37,2013-02-06 01:59:00,
2013-02-05 21:04:00,58.6,50.0,30.01,East,90,0.0,0.0,73,0.00,-RA,,0.00,WeatherDisplay:10.37,2013-02-06 02:04:00,
2013-02-05 21:09:00,58.6,50.0,30.02,East,90,0.0,0.0,73,0.00,-RA,,0.00,WeatherDisplay:10.37,2013-02-06 02:09:00,
2013-02-05 21:14:00,58.8,50.2,30.02,East,90,0.0,0.0,73,0.00,-RA,,0.00,WeatherDisplay:10.37,2013-02-06 02:14:00,
2013-02-05 21:19:00,58.8,50.2,30.02,East,90,0.0,0.0,73,0.00,-RA,,0.00,WeatherDisplay:10.37,2013-02-06 02:19:00,
2013-02-05 21:24:00,58.8,50.2,30.02,East,90,0.0,0.0,73,0.00,-RA,,0.00,WeatherDisplay:10.37,2013-02-06 02:24:00,
2013-02-05 21:29:00,58.8,49.8,30.02,East,90,0.0,0.0,72,0.00,-RA,,0.00,WeatherDisplay:10.37,2013-02-06 02:29:00,
2013-02-05 21:34:00,59.2,50.2,30.02,East,90,0.0,0.0,72,0.00,-RA,,0.00,WeatherDisplay:10.37,2013-02-06 02:34:00,
2013-02-05 21:39:00,59.2,50.2,30.02,East,90,0.0,0.0,72,0.00,-RA,,0.00,WeatherDisplay:10.37,2013-02-06 02:39:00,
2013-02-05 21:44:00,59.2,49.8,30.02,East,90,0.0,0.0,71,0.00,-RA,,0.00,WeatherDisplay:10.37,2013-02-06 02:44:00,
2013-02-05 21:49:00,59.2,49.4,30.03,East,90,0.0,0.0,70,0.00,-RA,,0.00,WeatherDisplay:10.37,2013-02-06 02:49:00,
2013-02-05 21:54:00,59.2,49.8,30.02,East,90,0.0,0.0,71,0.00,-RA,,0.00,WeatherDisplay:10.37,2013-02-06 02:54:00,
2013-02-05 21:59:00,59.0,49.6,30.02,East,90,0.0,0.0,71,0.00,-RA,,0.00,WeatherDisplay:10.37,2013-02-06 02:59:00,
2013-02-05 22:04:00,58.8,49.4,30.03,East,90,0.0,0.0,71,0.00,-RA,,0.00,WeatherDisplay:10.37,2013-02-06 03:04:00,
2013-02-05 22:08:00,58.8,49.4,30.02,East,90,0.0,0.0,71,0.00,-RA,,0.00,WeatherDisplay:10.37,2013-02-06 03:08:00,
2013-02-05 22:13:00,58.8,49.4,30.02,East,90,0.0,0.0,71,0.00,-RA,,0.00,WeatherDisplay:10.37,2013-02-06 03:13:00,
2013-02-05 22:18:00,58.8,49.4,30.02,East,90,0.0,0.0,71,0.00,-RA,,0.00,WeatherDisplay:10.37,2013-02-06 03:18:00,
2013-02-05 22:23:00,58.8,49.8,30.02,East,90,0.0,0.0,72,0.00,-RA,,0.00,WeatherDisplay:10.37,2013-02-06 03:23:00,
2013-02-05 22:28:00,58.6,50.4,30.02,East,90,0.0,0.0,74,0.00,-RA,,0.00,WeatherDisplay:10.37,2013-02-06 03:28:00,
2013-02-05 22:33:00,58.6,50.0,30.03,East,90,0.0,0.0,73,0.00,BKN,,0.00,WeatherDisplay:10.37,2013-02-06 03:33:00,
2013-02-05 22:38:00,58.3,50.0,30.02,East,90,0.0,0.0,74,0.00,BKN,,0.00,WeatherDisplay:10.37,2013-02-06 03:38:00,
2013-02-05 22:43:00,58.1,49.9,30.02,East,90,0.0,0.0,74,0.00,BKN,,0.00,WeatherDisplay:10.37,2013-02-06 03:43:00,
2013-02-05 22:48:00,57.7,50.2,30.03,East,90,0.0,0.0,76,0.00,BKN,,0.00,WeatherDisplay:10.37,2013-02-06 03:48:00,
2013-02-05 22:53:00,57.6,50.0,30.02,East,90,0.0,0.0,76,0.00,BKN,,0.00,WeatherDisplay:10.37,2013-02-06 03:53:00,
2013-02-05 22:58:00,57.4,50.6,30.03,East,90,0.0,0.0,78,0.00,BKN,,0.00,WeatherDisplay:10.37,2013-02-06 03:58:00,
2013-02-05 23:03:00,57.0,49.9,30.02,East,90,0.0,0.0,77,0.00,BKN,,0.00,WeatherDisplay:10.37,2013-02-06 04:03:00,
2013-02-05 23:08:00,56.7,49.5,30.02,East,90,0.0,0.0,77,0.00,BKN,,0.00,WeatherDisplay:10.37,2013-02-06 04:08:00,
2013-02-05 23:13:00,56.5,49.7,30.03,East,90,0.0,0.0,78,0.00,BKN,,0.00,WeatherDisplay:10.37,2013-02-06 04:13:00,
2013-02-05 23:18:00,56.1,49.7,30.02,East,90,0.0,0.0,79,0.00,BKN,,0.00,WeatherDisplay:10.37,2013-02-06 04:18:00,
2013-02-05 23:23:00,56.1,50.0,30.02,East,90,0.0,0.0,80,0.00,BKN,,0.00,WeatherDisplay:10.37,2013-02-06 04:23:00,
2013-02-05 23:28:00,56.3,50.2,30.02,East,90,0.0,0.0,80,0.00,BKN,,0.00,WeatherDisplay:10.37,2013-02-06 04:28:00,
2013-02-05 23:33:00,56.3,50.2,30.02,East,90,0.0,0.0,80,0.00,BKN,,0.00,WeatherDisplay:10.37,2013-02-06 04:33:00,
2013-02-05 23:38:00,56.5,50.4,30.02,East,90,0.0,0.0,80,0.00,BKN,,0.00,WeatherDisplay:10.37,2013-02-06 04:38:00,
2013-02-05 23:44:00,56.5,50.4,30.03,East,90,0.0,0.0,80,0.00,BKN,,0.00,WeatherDisplay:10.37,2013-02-06 04:44:00,
2013-02-05 23:48:00,56.8,51.4,30.03,East,90,0.0,0.0,82,0.00,BKN,,0.00,WeatherDisplay:10.37,2013-02-06 04:48:00,
2013-02-05 23:53:00,56.8,51.1,30.03,East,90,0.0,0.0,81,0.00,BKN,,0.00,WeatherDisplay:10.37,2013-02-06 04:53:00,
2013-02-05 23:58:00,56.8,51.1,30.03,East,90,0.0,0.0,81,0.00,BKN,,0.00,WeatherDisplay:10.37,2013-02-06 04:58:00,